createdAt,value
2017-07-18T00:01:21.102Z,14.50
2017-07-18T00:03:48.706Z,14.60
2017-07-18T00:06:17.007Z,14.40
2017-07-18T00:08:44.575Z,14.40
2017-07-18T00:11:12.163Z,14.40
2017-07-18T00:13:39.769Z,14.40
2017-07-18T00:16:08.082Z,14.40
2017-07-18T00:18:35.680Z,14.40
2017-07-18T00:21:03.231Z,14.40
2017-07-18T00:23:30.787Z,14.30
2017-07-18T00:25:58.399Z,14.20
2017-07-18T00:28:26.768Z,14.20
2017-07-18T00:30:55.077Z,14.20
2017-07-18T00:33:22.615Z,14.10
2017-07-18T00:35:51.000Z,14.10
2017-07-18T00:38:19.370Z,14.10
2017-07-18T00:40:47.756Z,14.10
2017-07-18T00:43:16.088Z,14.00
2017-07-18T00:45:43.677Z,14.00
2017-07-18T00:48:11.255Z,14.00
2017-07-18T00:50:39.661Z,13.90
2017-07-18T00:53:07.286Z,13.90
2017-07-18T00:55:34.834Z,13.90
2017-07-18T00:58:02.420Z,13.90
2017-07-18T01:00:30.813Z,13.80
2017-07-18T01:02:58.441Z,13.80
2017-07-18T01:05:26.127Z,13.80
2017-07-18T01:07:54.475Z,13.70
2017-07-18T01:10:22.061Z,13.70
2017-07-18T01:12:50.416Z,13.70
2017-07-18T01:15:17.979Z,13.60
2017-07-18T01:17:45.551Z,13.60
2017-07-18T01:20:13.520Z,13.70
2017-07-18T01:22:41.079Z,13.60
2017-07-18T01:25:08.668Z,13.60
2017-07-18T01:27:37.015Z,13.60
2017-07-18T01:30:04.604Z,13.60
2017-07-18T01:32:32.913Z,13.50
2017-07-18T01:35:00.595Z,13.50
2017-07-18T01:37:28.182Z,13.50
2017-07-18T01:39:55.760Z,13.50
2017-07-18T01:42:24.063Z,13.40
2017-07-18T01:44:51.655Z,13.40
2017-07-18T01:47:19.218Z,13.40
2017-07-18T01:49:46.769Z,13.40
2017-07-18T01:52:14.330Z,13.40
2017-07-18T01:54:41.996Z,13.30
2017-07-18T01:57:09.530Z,13.30
2017-07-18T01:59:37.114Z,13.30
2017-07-18T02:02:04.650Z,13.30
2017-07-18T02:04:32.179Z,13.30
2017-07-18T02:07:00.474Z,13.20
2017-07-18T02:09:28.796Z,13.20
2017-07-18T02:11:56.362Z,13.20
2017-07-18T02:14:23.892Z,13.20
2017-07-18T02:16:51.576Z,13.10
2017-07-18T02:19:19.099Z,13.10
2017-07-18T02:21:47.781Z,13.00
2017-07-18T02:24:16.133Z,13.00
2017-07-18T02:26:43.741Z,13.00
2017-07-18T02:29:11.334Z,13.00
2017-07-18T02:31:39.121Z,13.00
2017-07-18T02:34:06.675Z,13.00
2017-07-18T02:36:34.341Z,13.00
2017-07-18T02:39:01.919Z,13.00
2017-07-18T02:41:29.530Z,12.90
2017-07-18T02:43:57.091Z,12.90
2017-07-18T02:46:24.694Z,12.90
2017-07-18T02:48:52.284Z,12.90
2017-07-18T02:51:20.661Z,12.80
2017-07-18T02:53:49.003Z,12.80
2017-07-18T02:56:16.578Z,12.80
2017-07-18T02:58:44.152Z,12.80
2017-07-18T03:01:12.532Z,12.80
2017-07-18T03:03:40.873Z,12.70
2017-07-18T03:06:08.467Z,12.70
2017-07-18T03:08:36.841Z,12.70
2017-07-18T03:11:04.482Z,12.70
2017-07-18T03:13:32.018Z,12.70
2017-07-18T03:15:59.623Z,12.70
2017-07-18T03:18:27.481Z,12.70
2017-07-18T03:20:55.048Z,12.70
2017-07-18T03:23:22.611Z,12.60
2017-07-18T03:25:50.162Z,12.60
2017-07-18T03:28:17.741Z,12.60
2017-07-18T03:30:45.362Z,12.60
2017-07-18T03:33:12.973Z,12.60
2017-07-18T03:35:40.603Z,12.70
2017-07-18T03:41:01.731Z,12.70
2017-07-18T03:43:29.488Z,12.70
2017-07-18T03:45:57.154Z,12.70
2017-07-18T03:48:24.707Z,12.70
2017-07-18T03:50:52.240Z,12.70
2017-07-18T03:53:19.825Z,12.70
2017-07-18T03:55:47.358Z,12.70
2017-07-18T03:58:15.784Z,12.80
2017-07-18T04:00:43.334Z,12.80
2017-07-18T04:03:10.894Z,12.80
2017-07-18T04:05:38.462Z,12.80
2017-07-18T04:08:06.019Z,12.80
2017-07-18T04:10:33.580Z,12.80
2017-07-18T04:13:01.148Z,12.90
2017-07-18T04:15:28.704Z,12.90
2017-07-18T04:17:56.262Z,12.90
2017-07-18T04:20:24.080Z,13.00
2017-07-18T04:22:52.412Z,13.00
2017-07-18T04:25:19.966Z,13.00
2017-07-18T04:27:47.528Z,13.10
2017-07-18T04:30:15.082Z,13.10
2017-07-18T04:32:42.752Z,13.10
2017-07-18T04:35:10.322Z,13.20
2017-07-18T04:37:37.867Z,13.20
2017-07-18T04:40:05.435Z,13.20
2017-07-18T04:42:33.091Z,13.30
2017-07-18T04:45:00.702Z,13.30
2017-07-18T04:47:29.035Z,13.40
2017-07-18T04:49:56.593Z,13.40
2017-07-18T04:52:24.265Z,13.40
2017-07-18T04:54:51.815Z,13.50
2017-07-18T04:57:19.522Z,13.60
2017-07-18T04:59:47.078Z,13.70
2017-07-18T05:02:14.638Z,13.80
2017-07-18T05:04:42.270Z,13.90
2017-07-18T05:07:09.927Z,14.00
2017-07-18T05:09:37.494Z,14.10
2017-07-18T05:12:05.055Z,14.20
2017-07-18T05:14:32.592Z,14.30
2017-07-18T05:17:00.192Z,14.50
2017-07-18T05:19:27.793Z,14.60
2017-07-18T05:21:56.122Z,15.10
2017-07-18T05:24:23.678Z,15.10
2017-07-18T05:26:51.251Z,17.00
2017-07-18T05:29:18.793Z,18.90
2017-07-18T05:31:46.329Z,20.50
2017-07-18T05:34:13.919Z,21.50
2017-07-18T05:36:41.467Z,21.80
2017-07-18T05:39:09.039Z,22.40
2017-07-18T05:41:36.605Z,22.80
2017-07-18T05:44:04.166Z,23.10
2017-07-18T05:46:31.723Z,23.50
2017-07-18T05:48:59.282Z,23.70
2017-07-18T05:51:26.845Z,23.60
2017-07-18T05:53:54.398Z,23.60
2017-07-18T05:56:21.927Z,23.50
2017-07-18T05:58:50.247Z,24.20
2017-07-18T06:01:17.805Z,24.20
2017-07-18T06:03:45.354Z,24.90
2017-07-18T06:06:12.926Z,25.10
2017-07-18T06:08:40.558Z,25.50
2017-07-18T06:11:08.150Z,25.40
2017-07-18T06:13:35.701Z,25.20
2017-07-18T06:16:03.277Z,24.10
2017-07-18T06:18:30.931Z,24.40
2017-07-18T06:20:58.503Z,24.50
2017-07-18T06:23:26.159Z,25.30
2017-07-18T06:25:53.726Z,25.00
2017-07-18T06:28:21.390Z,23.80
2017-07-18T06:30:48.948Z,23.10
2017-07-18T06:33:16.503Z,23.00
2017-07-18T06:35:44.066Z,24.30
2017-07-18T06:38:11.623Z,23.70
2017-07-18T06:40:39.184Z,22.40
2017-07-18T06:43:06.847Z,22.00
2017-07-18T06:45:34.418Z,21.70
2017-07-18T06:48:01.981Z,21.50
2017-07-18T06:50:29.510Z,21.70
2017-07-18T06:52:57.043Z,22.90
2017-07-18T06:55:25.365Z,24.50
2017-07-18T06:57:52.926Z,24.40
2017-07-18T07:00:20.454Z,25.40
2017-07-18T07:02:48.746Z,25.10
2017-07-18T07:05:16.344Z,25.10
2017-07-18T07:07:43.902Z,24.90
2017-07-18T07:10:11.460Z,25.30
2017-07-18T07:12:38.994Z,26.30
2017-07-18T07:15:06.584Z,26.20
2017-07-18T07:17:34.134Z,26.30
2017-07-18T07:20:01.685Z,26.30
2017-07-18T07:22:29.259Z,26.40
2017-07-18T07:24:56.830Z,25.80
2017-07-18T07:27:24.378Z,25.40
2017-07-18T07:29:52.037Z,25.40
2017-07-18T07:32:19.598Z,25.70
2017-07-18T07:34:47.176Z,25.70
2017-07-18T07:37:14.825Z,26.30
2017-07-18T07:39:42.485Z,26.10
2017-07-18T07:42:10.055Z,26.70
2017-07-18T07:44:37.712Z,26.40
2017-07-18T07:47:05.372Z,26.20
2017-07-18T07:49:32.918Z,26.80
2017-07-18T07:52:00.445Z,26.80
2017-07-18T07:54:28.769Z,26.40
2017-07-18T07:56:56.311Z,26.30
2017-07-18T07:59:23.866Z,26.50
2017-07-18T08:01:51.456Z,25.80
2017-07-18T08:04:19.007Z,25.20
2017-07-18T08:06:46.580Z,25.20
2017-07-18T08:09:14.142Z,25.80
2017-07-18T08:11:41.701Z,25.90
2017-07-18T08:14:09.263Z,26.50
2017-07-18T08:16:36.790Z,26.40
2017-07-18T08:19:04.314Z,26.60
2017-07-18T08:21:31.945Z,26.50
2017-07-18T08:23:59.605Z,26.30
2017-07-18T08:26:27.166Z,25.90
2017-07-18T08:28:54.726Z,25.90
2017-07-18T08:31:22.290Z,25.50
2017-07-18T08:33:49.858Z,25.60
2017-07-18T08:36:17.415Z,25.50
2017-07-18T08:38:44.946Z,25.60
2017-07-18T08:41:12.494Z,26.00
2017-07-18T08:43:40.098Z,26.60
2017-07-18T08:46:07.621Z,26.60
2017-07-18T08:48:35.147Z,26.30
2017-07-18T08:51:03.501Z,25.50
2017-07-18T08:53:31.049Z,25.50
2017-07-18T08:55:58.572Z,25.70
2017-07-18T08:58:26.885Z,26.20
2017-07-18T09:00:54.450Z,26.20
2017-07-18T09:03:22.015Z,26.70
2017-07-18T09:05:49.570Z,26.10
2017-07-18T09:08:17.133Z,26.00
2017-07-18T09:10:44.698Z,26.50
2017-07-18T09:13:12.261Z,26.20
2017-07-18T09:15:39.785Z,26.00
2017-07-18T09:18:07.315Z,26.20
2017-07-18T09:20:34.842Z,26.40
2017-07-18T09:23:02.369Z,26.40
2017-07-18T09:25:29.923Z,26.40
2017-07-18T09:27:57.529Z,26.40
2017-07-18T09:30:25.181Z,26.00
2017-07-18T09:32:52.840Z,25.80
2017-07-18T09:35:20.503Z,25.90
2017-07-18T09:37:48.074Z,26.00
2017-07-18T09:40:15.730Z,25.50
2017-07-18T09:42:43.301Z,26.40
2017-07-18T09:45:10.830Z,25.90
2017-07-18T09:47:38.431Z,26.30
2017-07-18T09:50:05.966Z,26.50
2017-07-18T09:52:33.545Z,26.60
2017-07-18T09:55:01.104Z,26.70
2017-07-18T09:57:28.662Z,26.20
2017-07-18T09:59:56.232Z,25.90
2017-07-18T10:02:23.781Z,26.10
2017-07-18T10:04:51.337Z,27.10
2017-07-18T10:07:18.895Z,26.90
2017-07-18T10:09:46.461Z,26.90
2017-07-18T10:12:14.012Z,26.70
2017-07-18T10:14:41.542Z,26.10
2017-07-18T10:17:09.868Z,26.80
2017-07-18T10:19:37.402Z,26.70
2017-07-18T10:22:04.984Z,26.90
2017-07-18T10:24:32.510Z,27.00
2017-07-18T10:27:00.201Z,27.20
2017-07-18T10:29:27.737Z,27.30
2017-07-18T10:31:55.325Z,27.30
2017-07-18T10:34:23.810Z,26.80
2017-07-18T10:36:51.369Z,26.20
2017-07-18T10:39:19.029Z,26.10
2017-07-18T10:41:46.602Z,26.00
2017-07-18T10:44:14.150Z,26.50
2017-07-18T10:49:32.334Z,27.20
2017-07-18T10:51:59.877Z,27.60
2017-07-18T10:54:27.441Z,27.60
2017-07-18T10:56:54.998Z,27.60
2017-07-18T10:59:22.527Z,27.30
2017-07-18T11:01:50.121Z,26.60
2017-07-18T11:04:17.658Z,26.40
2017-07-18T11:06:45.207Z,26.40
2017-07-18T11:09:12.806Z,26.60
2017-07-18T11:11:40.370Z,26.30
2017-07-18T11:14:07.907Z,25.90
2017-07-18T11:16:35.487Z,25.80
2017-07-18T11:19:03.051Z,26.10
2017-07-18T11:21:30.603Z,26.60
2017-07-18T11:23:58.173Z,26.80
2017-07-18T11:26:25.739Z,26.40
2017-07-18T11:28:53.298Z,26.10
2017-07-18T11:31:20.830Z,26.80
2017-07-18T11:33:48.409Z,27.40
2017-07-18T11:36:15.982Z,26.60
2017-07-18T11:38:43.639Z,26.60
2017-07-18T11:41:11.201Z,26.80
2017-07-18T11:43:38.863Z,26.60
2017-07-18T11:46:06.418Z,26.40
2017-07-18T11:48:33.977Z,26.70
2017-07-18T11:51:01.542Z,26.90
2017-07-18T11:53:29.103Z,27.10
2017-07-18T11:55:56.665Z,26.90
2017-07-18T11:58:24.334Z,26.80
2017-07-18T12:00:51.990Z,26.50
2017-07-18T12:03:19.542Z,26.20
2017-07-18T12:05:47.119Z,26.50
2017-07-18T12:08:14.782Z,25.70
2017-07-18T12:10:42.343Z,26.00
2017-07-18T12:13:10.006Z,26.00
2017-07-18T12:15:37.558Z,26.30
2017-07-18T12:18:05.091Z,26.30
2017-07-18T12:20:32.686Z,26.40
2017-07-18T12:23:00.241Z,26.60
2017-07-18T12:25:27.817Z,26.30
2017-07-18T12:27:55.364Z,26.30
2017-07-18T12:30:22.922Z,26.50
2017-07-18T12:32:50.486Z,26.90
2017-07-18T12:35:18.046Z,26.30
2017-07-18T12:37:45.613Z,26.00
2017-07-18T12:40:13.260Z,26.20
2017-07-18T12:42:40.842Z,26.10
2017-07-18T12:45:22.525Z,26.50
2017-07-18T12:50:43.454Z,26.50
2017-07-18T12:53:11.023Z,26.40
2017-07-18T12:55:38.578Z,26.60
2017-07-18T12:58:06.110Z,26.00
2017-07-18T13:00:33.652Z,25.90
2017-07-18T13:03:01.178Z,26.30
2017-07-18T13:05:28.705Z,26.40
2017-07-18T13:07:56.268Z,26.60
2017-07-18T13:10:23.839Z,26.80
2017-07-18T13:12:51.394Z,26.90
2017-07-18T13:15:18.958Z,26.50
2017-07-18T13:17:46.493Z,26.50
2017-07-18T13:20:14.081Z,26.60
2017-07-18T13:28:28.075Z,26.70
2017-07-18T13:30:58.693Z,26.70
2017-07-18T13:33:26.231Z,26.40
2017-07-18T13:35:53.810Z,26.40
2017-07-18T13:38:21.381Z,26.50
2017-07-18T13:40:48.938Z,26.40
2017-07-18T13:43:16.502Z,26.30
2017-07-18T13:45:44.074Z,26.80
2017-07-18T13:48:11.623Z,26.80
2017-07-18T13:50:39.170Z,26.40
2017-07-18T13:53:06.704Z,26.10
2017-07-18T13:55:34.262Z,26.50
2017-07-18T13:58:01.805Z,26.50
2017-07-18T14:00:30.231Z,26.70
2017-07-18T14:02:57.768Z,26.70
2017-07-18T14:05:25.357Z,26.70
2017-07-18T14:07:52.926Z,26.80
2017-07-18T14:10:20.581Z,26.70
2017-07-18T14:12:48.150Z,26.50
2017-07-18T14:15:15.799Z,26.60
2017-07-18T14:17:43.323Z,26.80
2017-07-18T14:20:11.641Z,26.50
2017-07-18T14:22:39.203Z,26.50
2017-07-18T14:25:06.861Z,26.90
2017-07-18T14:27:34.435Z,27.00
2017-07-18T14:30:02.100Z,27.10
2017-07-18T14:32:29.755Z,27.10
2017-07-18T14:34:57.434Z,27.20
2017-07-18T14:37:24.973Z,27.10
2017-07-18T14:39:52.541Z,27.10
2017-07-18T14:42:20.104Z,27.10
2017-07-18T14:44:47.634Z,27.10
2017-07-18T14:47:15.230Z,26.90
2017-07-18T14:49:42.785Z,26.90
2017-07-18T14:52:10.357Z,26.70
2017-07-18T14:54:37.906Z,26.70
2017-07-18T14:57:05.559Z,26.70
2017-07-18T14:59:33.130Z,26.70
2017-07-18T15:02:00.686Z,26.40
2017-07-18T15:04:28.219Z,26.50
2017-07-18T15:06:55.770Z,26.30
2017-07-18T15:09:24.062Z,26.50
2017-07-18T15:11:51.656Z,26.50
2017-07-18T15:14:19.206Z,26.30
2017-07-18T15:16:46.880Z,26.30
2017-07-18T15:19:14.439Z,26.60
2017-07-18T15:21:42.087Z,26.70
2017-07-18T15:24:09.663Z,26.50
2017-07-18T15:26:37.210Z,26.40
2017-07-18T15:29:04.750Z,26.30
2017-07-18T15:31:32.338Z,26.10
2017-07-18T15:33:59.869Z,26.20
2017-07-18T15:36:27.461Z,26.30
2017-07-18T15:38:55.015Z,26.30
2017-07-18T15:41:22.590Z,26.40
2017-07-18T15:43:50.134Z,26.10
2017-07-18T15:46:17.688Z,26.10
2017-07-18T15:48:45.258Z,26.00
2017-07-18T15:51:12.822Z,26.10
2017-07-18T15:53:40.346Z,26.10
2017-07-18T15:56:07.942Z,26.00
2017-07-18T15:58:35.498Z,25.80
2017-07-18T16:01:03.163Z,25.90
2017-07-18T16:03:30.886Z,25.80
2017-07-18T16:05:59.315Z,25.80
2017-07-18T16:08:26.849Z,25.80
2017-07-18T16:10:54.442Z,25.50
2017-07-18T16:13:22.091Z,25.70
2017-07-18T16:15:49.658Z,25.40
2017-07-18T16:18:17.231Z,25.60
2017-07-18T16:20:44.778Z,25.60
2017-07-18T16:23:12.347Z,25.50
2017-07-18T16:25:45.638Z,25.60
2017-07-18T16:28:13.202Z,25.70
2017-07-18T16:30:40.773Z,25.60
2017-07-18T16:33:08.314Z,25.30
2017-07-18T16:35:35.847Z,25.30
2017-07-18T16:38:03.379Z,25.30
2017-07-18T16:40:31.714Z,25.40
2017-07-18T16:42:59.285Z,25.40
2017-07-18T16:45:26.850Z,25.30
2017-07-18T16:47:54.399Z,25.20
2017-07-18T16:50:21.952Z,25.20
2017-07-18T16:52:49.518Z,25.10
2017-07-18T16:55:17.078Z,25.00
2017-07-18T16:57:44.740Z,24.90
2017-07-18T17:00:12.279Z,24.90
2017-07-18T17:02:39.828Z,24.90
2017-07-18T17:05:07.361Z,24.80
2017-07-18T17:07:34.912Z,24.60
2017-07-18T17:10:02.449Z,24.60
2017-07-18T17:12:30.014Z,24.40
2017-07-18T17:14:57.562Z,24.40
2017-07-18T17:17:25.126Z,24.30
2017-07-18T17:19:52.689Z,24.30
2017-07-18T17:22:20.250Z,24.20
2017-07-18T17:24:47.778Z,24.10
2017-07-18T17:27:15.310Z,24.00
2017-07-18T17:29:42.942Z,23.90
2017-07-18T17:32:10.501Z,24.00
2017-07-18T17:34:38.059Z,24.10
2017-07-18T17:37:05.618Z,23.90
2017-07-18T17:39:33.283Z,23.90
2017-07-18T17:42:00.820Z,24.00
2017-07-18T17:44:28.399Z,23.90
2017-07-18T17:46:55.931Z,23.90
2017-07-18T17:49:23.462Z,23.90
2017-07-18T17:51:51.762Z,23.80
2017-07-18T17:54:19.359Z,23.70
2017-07-18T17:56:46.914Z,23.50
2017-07-18T17:59:14.445Z,23.50
2017-07-18T18:01:41.977Z,23.50
2017-07-18T18:04:09.609Z,23.50
2017-07-18T18:06:37.166Z,23.40
2017-07-18T18:09:04.739Z,23.30
2017-07-18T18:11:32.291Z,23.20
2017-07-18T18:13:59.850Z,23.20
2017-07-18T18:16:27.406Z,23.10
2017-07-18T18:18:55.059Z,23.00
2017-07-18T18:21:22.639Z,22.90
2017-07-18T18:23:50.181Z,22.80
2017-07-18T18:26:17.742Z,22.80
2017-07-18T18:28:45.285Z,22.70
2017-07-18T18:31:12.865Z,22.70
2017-07-18T18:33:40.389Z,22.60
2017-07-18T18:36:08.003Z,22.60
2017-07-18T18:38:35.545Z,22.50
2017-07-18T18:41:03.122Z,22.30
2017-07-18T18:43:30.690Z,22.20
2017-07-18T18:45:58.347Z,22.10
2017-07-18T18:48:25.910Z,22.20
2017-07-18T18:50:53.574Z,22.20
2017-07-18T18:53:21.110Z,22.20
2017-07-18T18:55:48.700Z,22.10
2017-07-18T18:58:16.320Z,22.00
2017-07-18T19:00:43.866Z,22.10
2017-07-18T19:03:12.177Z,21.90
2017-07-18T19:05:39.730Z,21.90
2017-07-18T19:08:07.254Z,21.90
2017-07-18T19:10:35.590Z,21.70
2017-07-18T19:13:03.146Z,21.70
2017-07-18T19:15:30.678Z,21.60
2017-07-18T19:17:58.207Z,21.50
2017-07-18T19:20:25.820Z,21.40
2017-07-18T19:22:53.354Z,21.20
2017-07-18T19:25:20.891Z,21.20
2017-07-18T19:27:49.191Z,21.10
2017-07-18T19:30:16.723Z,21.20
2017-07-18T19:32:45.022Z,21.10
2017-07-18T19:35:13.341Z,21.20
2017-07-18T19:37:40.904Z,21.20
2017-07-18T19:40:08.434Z,21.10
2017-07-18T19:42:36.019Z,21.00
2017-07-18T19:45:03.584Z,20.90
2017-07-18T19:47:31.157Z,20.90
2017-07-18T19:49:58.682Z,20.90
2017-07-18T19:52:26.248Z,20.70
2017-07-18T19:54:53.830Z,20.70
2017-07-18T19:57:21.399Z,20.70
2017-07-18T19:59:48.932Z,20.60
2017-07-18T20:02:16.489Z,20.40
2017-07-18T20:04:44.026Z,20.30
2017-07-18T20:07:12.346Z,20.10
2017-07-18T20:09:39.914Z,20.10
2017-07-18T20:12:07.469Z,20.00
2017-07-18T20:14:35.038Z,20.10
2017-07-18T20:17:02.688Z,20.00
2017-07-18T20:19:30.254Z,19.90
2017-07-18T20:21:57.814Z,20.00
2017-07-18T20:24:25.346Z,19.90
2017-07-18T20:26:52.893Z,19.90
2017-07-18T20:29:21.186Z,19.70
2017-07-18T20:31:48.746Z,19.70
2017-07-18T20:34:16.274Z,19.60
2017-07-18T20:36:43.874Z,19.60
2017-07-18T20:39:11.458Z,19.60
2017-07-18T20:41:39.027Z,19.30
2017-07-18T20:44:06.587Z,19.40
2017-07-18T20:46:34.113Z,19.20
2017-07-18T20:49:01.732Z,19.20
2017-07-18T20:51:29.367Z,19.30
2017-07-18T20:53:56.903Z,19.40
2017-07-18T20:56:24.498Z,19.30
2017-07-18T20:58:52.046Z,19.30
2017-07-18T21:01:19.581Z,19.20
2017-07-18T21:03:47.145Z,19.10
2017-07-18T21:06:14.699Z,19.00
2017-07-18T21:08:42.289Z,19.10
2017-07-18T21:11:09.822Z,19.10
2017-07-18T21:13:37.466Z,19.10
2017-07-18T21:16:05.790Z,18.90
2017-07-18T21:18:33.346Z,18.90
2017-07-18T21:21:00.879Z,18.80
2017-07-18T21:23:28.430Z,18.90
2017-07-18T21:25:56.725Z,18.70
2017-07-18T21:28:24.411Z,18.70
2017-07-18T21:30:51.970Z,18.70
2017-07-18T21:33:19.525Z,18.70
2017-07-18T21:35:47.054Z,18.60
2017-07-18T21:38:15.370Z,18.60
2017-07-18T21:40:42.903Z,18.50
2017-07-18T21:43:10.472Z,18.70
2017-07-18T21:45:38.065Z,18.50
2017-07-18T21:48:05.719Z,18.50
2017-07-18T21:50:33.251Z,18.40
2017-07-18T21:53:00.783Z,18.40
2017-07-18T21:55:28.409Z,18.40
2017-07-18T21:57:55.942Z,18.50
2017-07-18T22:00:23.470Z,18.50
2017-07-18T22:02:51.774Z,18.40
2017-07-18T22:05:19.342Z,18.30
2017-07-18T22:07:46.883Z,18.30
2017-07-18T22:10:15.306Z,18.30
2017-07-18T22:12:42.870Z,18.20
2017-07-18T22:15:10.525Z,18.40
2017-07-18T22:17:38.086Z,18.30
2017-07-18T22:20:05.750Z,18.30
2017-07-18T22:22:33.320Z,18.40
2017-07-18T22:25:00.878Z,18.20
2017-07-18T22:27:28.531Z,18.20
2017-07-18T22:29:56.097Z,18.20
2017-07-18T22:32:23.637Z,18.20
2017-07-18T22:34:51.225Z,18.20
2017-07-18T22:37:18.745Z,18.20
2017-07-18T22:39:47.054Z,18.10
2017-07-18T22:42:14.614Z,18.10
2017-07-18T22:44:42.151Z,18.10
2017-07-18T22:47:09.687Z,18.10
2017-07-18T22:49:38.027Z,18.00
2017-07-18T22:52:05.567Z,17.90
2017-07-18T22:54:33.099Z,17.90
2017-07-18T22:57:23.234Z,18.00
2017-07-18T22:59:50.769Z,17.90
2017-07-18T23:02:18.367Z,17.80
2017-07-18T23:04:45.906Z,17.70
2017-07-18T23:07:13.441Z,17.70
2017-07-18T23:09:41.038Z,17.60
2017-07-18T23:12:08.574Z,17.60
2017-07-18T23:14:36.138Z,17.50
2017-07-18T23:17:03.810Z,17.50
2017-07-18T23:19:31.376Z,17.50
2017-07-18T23:21:58.955Z,17.40
2017-07-18T23:24:26.602Z,17.50
2017-07-18T23:26:54.163Z,17.50
2017-07-18T23:29:21.826Z,17.60
2017-07-18T23:31:49.394Z,17.50
2017-07-18T23:34:16.966Z,17.40
2017-07-18T23:36:44.502Z,17.40
2017-07-18T23:39:12.062Z,17.30
2017-07-18T23:41:39.602Z,17.20
2017-07-18T23:44:07.195Z,17.00
2017-07-18T23:46:34.722Z,17.10
2017-07-18T23:49:02.313Z,17.00
2017-07-18T23:51:29.886Z,17.00
2017-07-18T23:53:57.435Z,16.90
2017-07-18T23:56:24.967Z,16.90
2017-07-18T23:58:52.559Z,16.80
